Willow, New York
Current Conditions -  °F | °C
As of 7:53 AM on Friday 19 Dec 2014 (Local Time) from KPOU Reporting Station
Overcast Overcast  
Wind Chill: 29°   Ceiling: 3300
Heat Index: 35°   Visibility: 10mi
Dew Point: 23°   Wind: 8mph
Humidity: 61%   Direction: 360°N
Pressure: 30.01"   Gusts: NA
Location:  42.08°N, 74.23°W
Report Text: KPOU 191253Z 36007KT 10SM OVC033 02/M05 A3001 RMK AO2 SLP161 T00171050
Loading
Personal Weather Stations






























Interactive Weather Map New forecast layout! Learn more

10-Day Weather Forecast

Advertisements
Track Severe Weather on mobile